createdAt,value
2023-01-10T00:01:06.863Z,99332.94
2023-01-10T00:04:10.095Z,99336.25
2023-01-10T00:07:12.944Z,99332.53
2023-01-10T00:10:15.796Z,99332.22
2023-01-10T00:13:24.804Z,99319.72
2023-01-10T00:16:27.286Z,99316.13
2023-01-10T00:19:30.077Z,99313.72
2023-01-10T00:22:32.773Z,99311.38
2023-01-10T00:25:36.401Z,99316.47
2023-01-10T00:28:39.588Z,99317.25
2023-01-10T00:31:42.367Z,99320.97
2023-01-10T00:34:45.688Z,99326.31
2023-01-10T00:37:48.724Z,99318.41
2023-01-10T00:40:51.271Z,99323.03
2023-01-10T00:43:59.843Z,99314.63
2023-01-10T00:47:02.366Z,99321.75
2023-01-10T00:50:12.124Z,99310.38
2023-01-10T00:53:14.691Z,99311.47
2023-01-10T00:56:17.514Z,99307.72
2023-01-10T00:59:20.444Z,99307.09
2023-01-10T01:02:23.237Z,99304.59
2023-01-10T01:05:27.260Z,99304.16
2023-01-10T01:08:30.090Z,99306.03
2023-01-10T01:11:32.670Z,99310.06
2023-01-10T01:14:35.407Z,99299.66
2023-01-10T01:17:37.928Z,99305.88
2023-01-10T01:20:41.751Z,99317.25
2023-01-10T01:23:44.509Z,99309.16
2023-01-10T01:26:47.069Z,99306.03
2023-01-10T01:29:49.793Z,99299.66
2023-01-10T01:32:53.649Z,99296.41
2023-01-10T01:35:56.746Z,99297.97
2023-01-10T01:38:59.763Z,99306.09
2023-01-10T01:42:02.593Z,99308.91
2023-01-10T01:45:08.536Z,99307.50
2023-01-10T01:48:22.974Z,99307.16
2023-01-10T01:51:30.887Z,99300.97
2023-01-10T01:54:34.673Z,99302.34
2023-01-10T01:57:38.216Z,99310.75
2023-01-10T02:00:41.759Z,99312.03
2023-01-10T02:03:48.744Z,99305.31
2023-01-10T02:06:53.738Z,99305.31
2023-01-10T02:10:01.934Z,99306.41
2023-01-10T02:13:07.470Z,99310.78
2023-01-10T02:16:10.446Z,99310.31
2023-01-10T02:19:43.374Z,99309.22
2023-01-10T02:23:14.124Z,99303.75
2023-01-10T02:27:03.484Z,99305.97
2023-01-10T02:30:35.342Z,99301.91
2023-01-10T02:33:44.028Z,99311.41
2023-01-10T02:37:08.699Z,99313.91
2023-01-10T02:40:22.158Z,99300.34
2023-01-10T02:43:31.792Z,99309.38
2023-01-10T02:46:37.279Z,99302.88
2023-01-10T02:49:50.900Z,99301.91
2023-01-10T02:52:53.871Z,99299.44
2023-01-10T02:56:13.154Z,99296.47
2023-01-10T02:59:38.396Z,99295.84
2023-01-10T03:02:58.437Z,99303.63
2023-01-10T03:06:16.496Z,99307.72
2023-01-10T03:09:34.301Z,99305.69
2023-01-10T03:12:40.270Z,99312.34
2023-01-10T03:15:45.000Z,99314.69
2023-01-10T03:19:08.652Z,99317.63
2023-01-10T03:22:12.760Z,99310.00
2023-01-10T03:25:17.481Z,99312.78
2023-01-10T03:28:29.900Z,99324.97
2023-01-10T03:31:45.019Z,99330.09
2023-01-10T03:34:48.080Z,99339.41
2023-01-10T03:37:57.240Z,99332.84
2023-01-10T03:41:13.434Z,99340.47
2023-01-10T03:44:44.651Z,99335.19
2023-01-10T03:47:52.002Z,99332.91
2023-01-10T03:50:55.891Z,99341.44
2023-01-10T03:54:02.805Z,99338.31
2023-01-10T03:57:06.138Z,99334.88
2023-01-10T04:00:10.599Z,99338.50
2023-01-10T04:03:13.613Z,99332.84
2023-01-10T04:06:17.863Z,99330.66
2023-01-10T04:09:21.169Z,99329.88
2023-01-10T04:12:24.649Z,99334.25
2023-01-10T04:15:27.387Z,99341.84
2023-01-10T04:18:30.375Z,99346.53
2023-01-10T04:21:32.823Z,99359.66
2023-01-10T04:24:36.033Z,99347.47
2023-01-10T04:27:38.427Z,99356.81
2023-01-10T04:30:42.270Z,99351.06
2023-01-10T04:33:45.152Z,99352.91
2023-01-10T04:36:50.536Z,99356.78
2023-01-10T04:39:53.443Z,99360.69
2023-01-10T04:42:56.188Z,99360.50
2023-01-10T04:45:59.017Z,99368.44
2023-01-10T04:49:02.302Z,99369.81
2023-01-10T04:52:04.840Z,99383.03
2023-01-10T04:55:07.918Z,99388.81
2023-01-10T04:58:10.495Z,99380.28
2023-01-10T05:01:16.125Z,99383.84
2023-01-10T05:04:20.779Z,99390.84
2023-01-10T05:07:23.622Z,99385.88
2023-01-10T05:10:26.507Z,99381.19
2023-01-10T05:13:29.395Z,99412.72
2023-01-10T05:16:32.049Z,99396.84
2023-01-10T05:19:34.837Z,99394.03
2023-01-10T05:22:37.221Z,99398.41
2023-01-10T05:25:40.274Z,99397.16
2023-01-10T05:28:43.449Z,99394.22
2023-01-10T05:31:46.311Z,99396.84
2023-01-10T05:34:49.146Z,99399.03
2023-01-10T05:37:52.056Z,99404.31
2023-01-10T05:40:57.520Z,99414.59
2023-01-10T05:44:01.541Z,99418.97
2023-01-10T05:47:04.160Z,99420.66
2023-01-10T05:50:07.703Z,99423.59
2023-01-10T05:53:10.411Z,99424.56
2023-01-10T05:56:13.154Z,99432.31
2023-01-10T05:59:27.530Z,99437.09
2023-01-10T06:02:30.779Z,99435.53
2023-01-10T06:05:33.492Z,99455.50
2023-01-10T06:08:37.302Z,99469.31
2023-01-10T06:11:40.582Z,99472.72
2023-01-10T06:14:43.520Z,99477.31
2023-01-10T06:17:46.107Z,99484.09
2023-01-10T06:20:50.231Z,99495.25
2023-01-10T06:23:52.688Z,99496.03
2023-01-10T06:26:55.307Z,99486.06
2023-01-10T06:29:59.649Z,99479.69
2023-01-10T06:33:03.184Z,99473.31
2023-01-10T06:36:05.937Z,99482.53
2023-01-10T06:39:08.455Z,99495.44
2023-01-10T06:42:11.369Z,99495.75
2023-01-10T06:45:13.841Z,99482.53
2023-01-10T06:48:16.864Z,99496.81
2023-01-10T06:51:20.421Z,99501.03
2023-01-10T06:54:23.271Z,99504.25
2023-01-10T06:57:25.752Z,99506.50
2023-01-10T07:00:30.028Z,99508.75
2023-01-10T07:03:32.768Z,99518.34
2023-01-10T07:06:39.522Z,99513.47
2023-01-10T07:09:42.092Z,99517.66
2023-01-10T07:12:45.155Z,99517.38
2023-01-10T07:15:48.496Z,99523.75
2023-01-10T07:18:51.280Z,99529.41
2023-01-10T07:21:53.706Z,99543.22
2023-01-10T07:24:56.533Z,99548.22
2023-01-10T07:27:59.051Z,99549.28
2023-01-10T07:31:03.434Z,99558.50
2023-01-10T07:34:06.164Z,99562.81
2023-01-10T07:37:09.032Z,99560.44
2023-01-10T07:40:11.965Z,99580.53
2023-01-10T07:43:15.343Z,99578.97
2023-01-10T07:46:17.893Z,99571.03
2023-01-10T07:49:20.525Z,99582.44
2023-01-10T07:52:23.472Z,99596.84
2023-01-10T07:55:26.192Z,99593.13
2023-01-10T07:58:29.812Z,99596.84
2023-01-10T08:01:33.118Z,99615.06
2023-01-10T08:04:36.503Z,99613.69
2023-01-10T08:07:39.196Z,99614.88
2023-01-10T08:10:41.930Z,99614.88
2023-01-10T08:13:45.050Z,99624.06
2023-01-10T08:16:47.588Z,99631.91
2023-01-10T08:19:50.157Z,99640.53
2023-01-10T08:22:52.820Z,99635.44
2023-01-10T08:25:58.910Z,99641.50
2023-01-10T08:29:01.545Z,99644.44
2023-01-10T08:32:04.126Z,99653.34
2023-01-10T08:35:07.191Z,99659.81
2023-01-10T08:38:10.807Z,99666.88
2023-01-10T08:41:13.840Z,99674.03
2023-01-10T08:44:16.718Z,99677.94
2023-01-10T08:47:19.134Z,99685.03
2023-01-10T08:50:22.781Z,99683.16
2023-01-10T08:53:31.424Z,99686.75
2023-01-10T08:56:36.865Z,99697.63
2023-01-10T08:59:39.498Z,99711.16
2023-01-10T09:02:43.069Z,99719.00
2023-01-10T09:05:45.622Z,99723.00
2023-01-10T09:08:48.188Z,99722.84
2023-01-10T09:11:50.704Z,99723.63
2023-01-10T09:14:54.039Z,99731.59
2023-01-10T09:17:58.401Z,99742.47
2023-01-10T09:21:01.255Z,99747.78
2023-01-10T09:24:04.190Z,99762.66
2023-01-10T09:27:07.017Z,99767.72
2023-01-10T09:30:10.260Z,99777.72
2023-01-10T09:33:13.758Z,99796.31
2023-01-10T09:36:16.466Z,99788.88
2023-01-10T09:39:19.201Z,99795.53
2023-01-10T09:42:42.792Z,99802.22
2023-01-10T09:45:56.605Z,99809.94
2023-01-10T09:49:17.757Z,99816.81
2023-01-10T09:52:25.082Z,99819.06
2023-01-10T09:55:33.810Z,99816.03
2023-01-10T09:58:38.771Z,99818.38
2023-01-10T10:01:41.428Z,99813.75
2023-01-10T10:04:49.756Z,99818.25
2023-01-10T10:07:58.693Z,99819.16
2023-01-10T10:11:28.423Z,99822.09
2023-01-10T10:14:56.004Z,99811.81
2023-01-10T10:18:14.048Z,99808.59
2023-01-10T10:21:28.589Z,99809.66
2023-01-10T10:25:04.754Z,99821.09
2023-01-10T10:28:13.260Z,99830.38
2023-01-10T10:31:27.806Z,99838.81
2023-01-10T10:34:37.442Z,99824.22
2023-01-10T10:37:45.931Z,99822.53
2023-01-10T10:40:50.327Z,99808.16
2023-01-10T10:43:54.745Z,99808.94
2023-01-10T10:46:59.657Z,99807.06
2023-01-10T10:50:18.686Z,99806.78
2023-01-10T10:53:21.585Z,99812.25
2023-01-10T10:56:26.728Z,99814.91
2023-01-10T10:59:29.318Z,99825.19
2023-01-10T11:02:39.389Z,99813.81
2023-01-10T11:05:45.530Z,99809.22
2023-01-10T11:08:52.890Z,99813.66
2023-01-10T11:11:56.915Z,99818.16
2023-01-10T11:15:00.155Z,99828.28
2023-01-10T11:18:14.504Z,99827.44
2023-01-10T11:21:20.371Z,99836.72
2023-01-10T11:24:34.014Z,99855.72
2023-01-10T11:27:51.571Z,99843.16
2023-01-10T11:30:55.621Z,99838.66
2023-01-10T11:33:59.298Z,99839.72
2023-01-10T11:37:18.590Z,99853.44
2023-01-10T11:40:45.776Z,99859.22
2023-01-10T11:43:48.187Z,99881.16
2023-01-10T11:46:54.694Z,99881.16
2023-01-10T11:50:00.169Z,99889.66
2023-01-10T11:53:05.016Z,99890.44
2023-01-10T11:56:11.418Z,99890.44
2023-01-10T11:59:17.245Z,99899.94
2023-01-10T12:02:26.236Z,99897.00
2023-01-10T12:05:29.259Z,99906.59
2023-01-10T12:08:36.968Z,99910.78
2023-01-10T12:11:39.707Z,99921.88
2023-01-10T12:14:42.190Z,99926.94
2023-01-10T12:17:44.666Z,99920.88
2023-01-10T12:20:52.665Z,99937.50
2023-01-10T12:23:58.743Z,99940.44
2023-01-10T12:27:04.004Z,99945.38
2023-01-10T12:30:50.299Z,99952.78
2023-01-10T12:34:07.845Z,99966.88
2023-01-10T12:37:22.493Z,99970.56
2023-01-10T12:40:34.311Z,99974.44
2023-01-10T12:44:00.288Z,99974.44
2023-01-10T12:47:25.627Z,99966.00
2023-01-10T12:50:37.258Z,99958.59
2023-01-10T12:53:55.737Z,99939.81
2023-01-10T12:57:14.448Z,99952.22
2023-01-10T13:00:24.487Z,99945.88
2023-01-10T13:03:33.573Z,99957.75
2023-01-10T13:06:40.024Z,99968.03
2023-01-10T13:09:44.304Z,99967.03
2023-01-10T13:12:55.207Z,99976.31
2023-01-10T13:16:29.665Z,99983.59
2023-01-10T13:19:32.164Z,99993.72
2023-01-10T13:22:38.352Z,99996.38
2023-01-10T13:25:41.310Z,100015.94
2023-01-10T13:28:58.752Z,100010.44
2023-01-10T13:32:02.691Z,100004.66
2023-01-10T13:35:18.201Z,100002.28
2023-01-10T13:38:30.897Z,100009.94
2023-01-10T13:42:17.283Z,100023.66
2023-01-10T13:45:21.338Z,100029.50
2023-01-10T13:48:27.074Z,100027.94
2023-01-10T13:51:31.884Z,100025.28
2023-01-10T13:54:35.109Z,100032.44
2023-01-10T13:57:55.755Z,100035.84
2023-01-10T14:01:20.443Z,100036.38
2023-01-10T14:04:30.075Z,100041.44
2023-01-10T14:07:51.066Z,100047.03
2023-01-10T14:11:13.141Z,100046.22
2023-01-10T14:14:39.797Z,100050.66
2023-01-10T14:17:42.440Z,100048.50
2023-01-10T14:20:55.862Z,100056.56
2023-01-10T14:23:59.149Z,100055.50
2023-01-10T14:27:03.350Z,100055.22
2023-01-10T14:30:06.846Z,100066.63
2023-01-10T14:33:20.398Z,100060.78
2023-01-10T14:36:31.620Z,100070.84
2023-01-10T14:39:35.529Z,100079.84
2023-01-10T14:42:38.334Z,100087.31
2023-01-10T14:45:48.146Z,100081.53
2023-01-10T14:48:53.411Z,100089.97
2023-01-10T14:52:13.362Z,100091.81
2023-01-10T14:55:18.440Z,100089.69
2023-01-10T14:58:22.954Z,100100.81
2023-01-10T15:01:28.794Z,100098.47
2023-01-10T15:04:33.799Z,100111.69
2023-01-10T15:07:37.832Z,100123.25
2023-01-10T15:10:43.803Z,100135.47
2023-01-10T15:13:52.262Z,100130.38
2023-01-10T15:17:02.205Z,100142.59
2023-01-10T15:20:05.841Z,100147.09
2023-01-10T15:23:14.595Z,100141.22
2023-01-10T15:26:35.440Z,100148.88
2023-01-10T15:29:44.610Z,100152.59
2023-01-10T15:32:50.289Z,100158.38
2023-01-10T15:35:53.713Z,100156.28
2023-01-10T15:38:56.531Z,100177.16
2023-01-10T15:42:03.810Z,100176.16
2023-01-10T15:45:31.143Z,100188.31
2023-01-10T15:48:36.105Z,100203.03
2023-01-10T15:51:39.578Z,100202.56
2023-01-10T15:54:44.436Z,100202.56
2023-01-10T15:57:51.723Z,100199.59
2023-01-10T16:00:56.502Z,100203.63
2023-01-10T16:04:02.817Z,100204.97
2023-01-10T16:07:09.006Z,100213.69
2023-01-10T16:10:28.038Z,100220.03
2023-01-10T16:13:33.115Z,100215.81
2023-01-10T16:16:35.994Z,100221.91
2023-01-10T16:19:58.470Z,100225.28
2023-01-10T16:23:02.338Z,100224.81
2023-01-10T16:26:06.848Z,100232.78
2023-01-10T16:29:11.806Z,100232.78
2023-01-10T16:32:14.872Z,100237.50
2023-01-10T16:35:18.571Z,100243.59
2023-01-10T16:38:22.415Z,100254.19
2023-01-10T16:41:43.842Z,100256.03
2023-01-10T16:44:46.377Z,100254.19
2023-01-10T16:47:48.941Z,100257.84
2023-01-10T16:50:51.913Z,100257.06
2023-01-10T16:53:55.224Z,100259.47
2023-01-10T16:56:57.839Z,100258.13
2023-01-10T17:00:00.490Z,100261.81
2023-01-10T17:03:06.936Z,100263.13
2023-01-10T17:06:12.615Z,100267.09
2023-01-10T17:09:33.167Z,100274.22
2023-01-10T17:12:38.329Z,100285.56
2023-01-10T17:15:40.815Z,100294.28
2023-01-10T17:18:43.700Z,100291.63
2023-01-10T17:21:46.944Z,100293.97
2023-01-10T17:24:49.757Z,100295.22
2023-01-10T17:27:52.422Z,100299.44
2023-01-10T17:30:55.677Z,100304.72
2023-01-10T17:33:58.336Z,100313.69
2023-01-10T17:37:01.142Z,100311.56
2023-01-10T17:40:05.569Z,100315.03
2023-01-10T17:43:09.178Z,100322.91
2023-01-10T17:46:12.699Z,100332.72
2023-01-10T17:49:15.385Z,100322.94
2023-01-10T17:52:18.400Z,100339.31
2023-01-10T17:55:20.944Z,100335.63
2023-01-10T17:58:23.529Z,100334.03
2023-01-10T18:01:26.550Z,100339.09
2023-01-10T18:04:30.005Z,100339.91
2023-01-10T18:07:33.005Z,100356.03
2023-01-10T18:10:35.541Z,100348.69
2023-01-10T18:13:38.296Z,100351.34
2023-01-10T18:16:40.806Z,100343.38
2023-01-10T18:19:44.582Z,100345.25
2023-01-10T18:23:05.671Z,100366.66
2023-01-10T18:26:10.798Z,100372.22
2023-01-10T18:29:13.740Z,100363.75
2023-01-10T18:32:16.799Z,100361.63
2023-01-10T18:35:19.735Z,100372.72
2023-01-10T18:38:23.034Z,100377.50
2023-01-10T18:41:25.799Z,100379.88
2023-01-10T18:44:28.748Z,100385.47
2023-01-10T18:47:31.642Z,100378.31
2023-01-10T18:50:34.498Z,100378.06
2023-01-10T18:53:37.183Z,100386.53
2023-01-10T18:56:39.843Z,100384.16
2023-01-10T18:59:42.611Z,100386.84
2023-01-10T19:02:46.280Z,100390.28
2023-01-10T19:05:49.812Z,100401.66
2023-01-10T19:08:52.983Z,100400.34
2023-01-10T19:11:56.127Z,100400.59
2023-01-10T19:15:00.717Z,100414.31
2023-01-10T19:18:03.666Z,100418.81
2023-01-10T19:21:07.653Z,100424.09
2023-01-10T19:24:21.819Z,100429.66
2023-01-10T19:27:24.748Z,100438.09
2023-01-10T19:30:28.273Z,100439.41
2023-01-10T19:33:33.023Z,100437.31
2023-01-10T19:36:35.694Z,100435.75
2023-01-10T19:39:38.371Z,100442.09
2023-01-10T19:42:41.293Z,100446.81
2023-01-10T19:45:43.999Z,100454.22
2023-01-10T19:48:46.856Z,100460.28
2023-01-10T19:51:56.221Z,100457.13
2023-01-10T19:54:58.903Z,100462.13
2023-01-10T19:58:02.307Z,100464.25
2023-01-10T20:01:20.600Z,100455.78
2023-01-10T20:04:23.570Z,100458.97
2023-01-10T20:07:26.588Z,100457.09
2023-01-10T20:10:29.544Z,100450.78
2023-01-10T20:13:37.565Z,100457.38
2023-01-10T20:16:40.270Z,100459.50
2023-01-10T20:19:42.961Z,100459.50
2023-01-10T20:22:45.731Z,100465.56
2023-01-10T20:26:22.234Z,100460.03
2023-01-10T20:29:25.117Z,100466.91
2023-01-10T20:32:28.401Z,100466.88
2023-01-10T20:35:31.221Z,100463.44
2023-01-10T20:38:35.550Z,100465.81
2023-01-10T20:41:38.821Z,100472.69
2023-01-10T20:44:41.288Z,100459.47
2023-01-10T20:47:43.974Z,100456.31
2023-01-10T20:50:47.106Z,100458.69
2023-01-10T20:53:51.233Z,100445.75
2023-01-10T20:56:53.659Z,100455.00
2023-01-10T20:59:56.259Z,100439.50
2023-01-10T21:02:58.925Z,100439.78
2023-01-10T21:06:02.130Z,100436.38
2023-01-10T21:09:05.882Z,100449.84
2023-01-10T21:12:22.203Z,100441.13
2023-01-10T21:15:25.556Z,100445.63
2023-01-10T21:18:34.589Z,100444.84
2023-01-10T21:21:38.342Z,100457.28
2023-01-10T21:24:42.953Z,100459.66
2023-01-10T21:27:45.464Z,100458.09
2023-01-10T21:30:48.096Z,100463.91
2023-01-10T21:33:50.716Z,100475.50
2023-01-10T21:36:54.446Z,100462.81
2023-01-10T21:39:57.186Z,100480.75
2023-01-10T21:43:00.511Z,100475.22
2023-01-10T21:46:03.191Z,100483.91
2023-01-10T21:49:06.194Z,100498.19
2023-01-10T21:52:08.680Z,100510.84
2023-01-10T21:55:14.469Z,100502.41
2023-01-10T21:58:17.325Z,100503.19
2023-01-10T22:01:19.941Z,100503.44
2023-01-10T22:04:22.661Z,100515.31
2023-01-10T22:07:27.437Z,100509.28
2023-01-10T22:10:30.322Z,100492.66
2023-01-10T22:13:33.122Z,100489.47
2023-01-10T22:16:35.598Z,100488.69
2023-01-10T22:19:39.178Z,100487.13
2023-01-10T22:22:41.603Z,100489.47
2023-01-10T22:25:44.561Z,100487.13
2023-01-10T22:28:47.139Z,100474.97
2023-01-10T22:31:50.829Z,100473.13
2023-01-10T22:34:58.988Z,100460.72
2023-01-10T22:38:01.954Z,100450.41
2023-01-10T22:41:13.650Z,100464.09
2023-01-10T22:44:23.049Z,100468.00
2023-01-10T22:47:25.571Z,100468.53
2023-01-10T22:50:28.738Z,100460.34
2023-01-10T22:53:31.794Z,100470.66
2023-01-10T22:56:35.070Z,100462.47
2023-01-10T22:59:37.686Z,100464.63
2023-01-10T23:02:40.426Z,100457.19
2023-01-10T23:05:43.079Z,100451.69
2023-01-10T23:08:46.607Z,100449.28
2023-01-10T23:11:49.184Z,100431.09
2023-01-10T23:14:52.404Z,100430.59
2023-01-10T23:17:54.794Z,100432.22
2023-01-10T23:20:57.800Z,100433.25
2023-01-10T23:24:00.379Z,100438.00
2023-01-10T23:27:03.037Z,100441.19
2023-01-10T23:30:07.793Z,100440.91
2023-01-10T23:33:10.533Z,100438.53
2023-01-10T23:36:13.712Z,100443.81
2023-01-10T23:39:19.088Z,100435.13
2023-01-10T23:42:22.174Z,100433.78
2023-01-10T23:45:25.018Z,100438.03
2023-01-10T23:48:27.965Z,100437.53
2023-01-10T23:51:31.358Z,100437.53
2023-01-10T23:54:33.801Z,100435.66
2023-01-10T23:57:36.585Z,100440.16
